createdAt,value
2023-02-11T00:00:29.253Z,1.50
2023-02-11T00:03:25.517Z,1.52
2023-02-11T00:06:09.352Z,1.60
2023-02-11T00:08:43.145Z,1.60
2023-02-11T00:11:20.196Z,1.66
2023-02-11T00:13:53.585Z,1.70
2023-02-11T00:16:27.062Z,1.70
2023-02-11T00:19:02.500Z,1.70
2023-02-11T00:21:35.887Z,1.74
2023-02-11T00:24:09.852Z,1.78
2023-02-11T00:26:42.982Z,1.80
2023-02-11T00:29:16.275Z,1.80
2023-02-11T00:31:49.620Z,1.80
2023-02-11T00:34:22.769Z,1.80
2023-02-11T00:36:55.799Z,1.80
2023-02-11T00:39:29.072Z,1.80
2023-02-11T00:42:02.241Z,1.80
2023-02-11T00:44:35.403Z,1.78
2023-02-11T00:47:08.573Z,1.76
2023-02-11T00:49:42.654Z,1.70
2023-02-11T00:52:15.684Z,1.70
2023-02-11T00:54:48.821Z,1.70
2023-02-11T00:57:24.226Z,1.72
2023-02-11T00:59:57.448Z,1.80
2023-02-11T01:02:30.651Z,1.80
2023-02-11T01:05:04.343Z,1.80
2023-02-11T01:07:38.820Z,1.80
2023-02-11T01:10:12.575Z,1.80
2023-02-11T01:12:45.826Z,1.76
2023-02-11T01:15:21.723Z,1.70
2023-02-11T01:17:54.920Z,1.70
2023-02-11T01:20:30.686Z,1.60
2023-02-11T01:23:03.818Z,1.56
2023-02-11T01:25:36.872Z,1.50
2023-02-11T01:28:13.943Z,1.40
2023-02-11T01:30:47.365Z,1.40
2023-02-11T01:33:21.000Z,1.30
2023-02-11T01:35:55.115Z,1.28
2023-02-11T01:38:29.723Z,1.20
2023-02-11T01:41:05.415Z,1.20
2023-02-11T01:43:42.698Z,1.20
2023-02-11T01:46:38.144Z,1.20
2023-02-11T01:49:16.173Z,1.20
2023-02-11T01:51:55.130Z,1.20
2023-02-11T01:54:49.298Z,1.20
2023-02-11T01:57:28.433Z,1.20
2023-02-11T02:00:09.744Z,1.20
2023-02-11T02:02:57.805Z,1.20
2023-02-11T02:05:38.462Z,1.20
2023-02-11T02:08:13.447Z,1.30
2023-02-11T02:10:54.046Z,1.30
2023-02-11T02:13:25.677Z,1.30
2023-02-11T02:16:01.760Z,1.32
2023-02-11T02:18:49.084Z,1.40
2023-02-11T02:22:18.676Z,1.40
2023-02-11T02:25:30.967Z,1.50
2023-02-11T02:28:18.428Z,1.50
2023-02-11T02:31:11.623Z,1.50
2023-02-11T02:33:56.968Z,1.58
2023-02-11T02:36:43.837Z,1.60
2023-02-11T02:39:23.757Z,1.60
2023-02-11T02:41:57.542Z,1.62
2023-02-11T02:44:31.479Z,1.70
2023-02-11T02:47:04.630Z,1.78
2023-02-11T02:49:37.696Z,1.80
2023-02-11T02:52:24.817Z,1.90
2023-02-11T02:55:13.677Z,1.90
2023-02-11T02:58:14.749Z,2.00
2023-02-11T03:00:56.114Z,2.10
2023-02-11T03:03:42.787Z,2.20
2023-02-11T03:06:24.110Z,2.30
2023-02-11T03:09:02.398Z,2.40
2023-02-11T03:38:46.940Z,3.24
2023-02-11T03:41:37.226Z,3.12
2023-02-11T03:44:14.414Z,3.10
2023-02-11T03:46:52.216Z,3.00
2023-02-11T03:49:28.769Z,2.90
2023-02-11T03:52:06.160Z,2.90
2023-02-11T03:54:41.672Z,2.80
2023-02-11T04:05:04.081Z,2.70
2023-02-11T04:07:37.512Z,2.70
2023-02-11T04:10:12.514Z,2.64
2023-02-11T04:12:46.033Z,2.64
2023-02-11T04:15:19.958Z,2.60
2023-02-11T04:17:53.809Z,2.60
2023-02-11T04:20:27.328Z,2.60
2023-02-11T04:23:00.546Z,2.50
2023-02-11T04:25:33.701Z,2.50
2023-02-11T04:28:07.165Z,2.50
2023-02-11T04:30:40.500Z,2.50
2023-02-11T04:33:13.849Z,2.50
2023-02-11T04:35:46.932Z,2.48
2023-02-11T04:38:20.275Z,2.50
2023-02-11T04:40:53.562Z,2.50
2023-02-11T04:43:26.706Z,2.50
2023-02-11T04:46:02.625Z,2.50
2023-02-11T04:48:36.045Z,2.50
2023-02-11T04:51:09.445Z,2.50
2023-02-11T04:53:42.944Z,2.50
2023-02-11T04:56:16.085Z,2.50
2023-02-11T04:58:49.191Z,2.50
2023-02-11T05:01:22.319Z,2.52
2023-02-11T05:03:55.368Z,2.60
2023-02-11T05:06:28.562Z,2.60
2023-02-11T05:09:01.546Z,2.60
2023-02-11T05:11:34.690Z,2.60
2023-02-11T05:14:08.026Z,2.60
2023-02-11T05:16:41.269Z,2.60
2023-02-11T05:19:14.753Z,2.68
2023-02-11T05:22:01.796Z,2.70
2023-02-11T05:24:36.656Z,2.70
2023-02-11T05:27:09.848Z,2.70
2023-02-11T05:29:43.181Z,2.70
2023-02-11T05:32:17.856Z,2.70
2023-02-11T05:34:51.128Z,2.70
2023-02-11T05:37:24.363Z,2.70
2023-02-11T05:39:57.512Z,2.80
2023-02-11T05:42:30.696Z,2.80
2023-02-11T05:45:03.910Z,2.80
2023-02-11T05:47:37.094Z,2.80
2023-02-11T05:50:11.293Z,2.80
2023-02-11T05:52:44.308Z,2.80
2023-02-11T05:55:17.536Z,2.80
2023-02-11T05:57:50.613Z,2.80
2023-02-11T06:00:24.167Z,2.80
2023-02-11T06:02:57.362Z,2.80
2023-02-11T06:05:30.471Z,2.80
2023-02-11T06:08:03.600Z,2.80
2023-02-11T06:10:37.341Z,2.80
2023-02-11T06:13:10.344Z,2.80
2023-02-11T06:15:43.453Z,2.80
2023-02-11T06:18:16.899Z,2.80
2023-02-11T06:20:50.210Z,2.90
2023-02-11T06:23:23.432Z,2.90
2023-02-11T06:25:56.728Z,2.90
2023-02-11T06:28:31.415Z,2.90
2023-02-11T06:31:09.996Z,2.96
2023-02-11T06:33:43.227Z,3.00
2023-02-11T06:36:22.025Z,3.00
2023-02-11T06:38:55.566Z,3.00
2023-02-11T06:41:28.607Z,3.02
2023-02-11T06:44:01.742Z,3.10
2023-02-11T06:46:34.797Z,3.10
2023-02-11T06:49:07.991Z,3.10
2023-02-11T06:51:41.051Z,3.10
2023-02-11T06:54:14.458Z,3.10
2023-02-11T06:56:47.501Z,3.20
2023-02-11T06:59:22.741Z,3.20
2023-02-11T07:01:55.859Z,3.20
2023-02-11T07:04:29.016Z,3.28
2023-02-11T07:07:02.019Z,3.30
2023-02-11T07:09:35.053Z,3.30
2023-02-11T07:12:10.538Z,3.30
2023-02-11T07:14:44.193Z,3.30
2023-02-11T07:17:17.283Z,3.38
2023-02-11T07:19:50.626Z,3.40
2023-02-11T07:22:23.946Z,3.50
2023-02-11T07:24:57.062Z,3.50
2023-02-11T07:27:30.143Z,3.50
2023-02-11T07:30:05.452Z,3.50
2023-02-11T07:32:40.008Z,3.52
2023-02-11T07:35:13.209Z,3.60
2023-02-11T07:37:46.244Z,3.60
2023-02-11T07:40:19.846Z,3.70
2023-02-11T07:42:52.839Z,3.70
2023-02-11T07:45:26.341Z,3.80
2023-02-11T07:47:59.338Z,3.80
2023-02-11T07:50:32.641Z,3.90
2023-02-11T07:53:05.738Z,3.90
2023-02-11T07:55:39.328Z,3.90
2023-02-11T07:58:12.529Z,3.98
2023-02-11T08:00:46.351Z,4.00
2023-02-11T08:03:19.382Z,4.00
2023-02-11T08:05:52.824Z,4.00
2023-02-11T08:08:27.412Z,4.10
2023-02-11T08:11:06.486Z,4.10
2023-02-11T08:13:40.208Z,4.10
2023-02-11T08:16:21.230Z,4.14
2023-02-11T08:18:55.478Z,4.20
2023-02-11T08:21:29.525Z,4.20
2023-02-11T08:24:04.450Z,4.30
2023-02-11T08:26:37.872Z,4.30
2023-02-11T08:29:15.270Z,4.30
2023-02-11T08:31:50.462Z,4.40
2023-02-11T08:34:23.622Z,4.40
2023-02-11T08:36:56.753Z,4.50
2023-02-11T08:39:30.084Z,4.50
2023-02-11T08:42:03.149Z,4.60
2023-02-11T08:44:36.157Z,4.70
2023-02-11T08:47:09.297Z,4.90
2023-02-11T08:49:42.700Z,5.00
2023-02-11T08:52:15.860Z,5.10
2023-02-11T08:54:48.890Z,5.20
2023-02-11T08:57:21.866Z,5.28
2023-02-11T08:59:55.621Z,5.30
2023-02-11T09:02:29.014Z,5.30
2023-02-11T09:05:02.260Z,5.30
2023-02-11T09:07:35.687Z,5.32
2023-02-11T09:10:11.244Z,5.40
2023-02-11T09:12:44.379Z,5.50
2023-02-11T09:15:17.419Z,5.56
2023-02-11T09:17:50.597Z,5.70
2023-02-11T09:20:23.974Z,5.80
2023-02-11T09:22:58.369Z,5.90
2023-02-11T09:25:31.477Z,6.00
2023-02-11T09:28:04.650Z,6.10
2023-02-11T09:30:38.254Z,6.10
2023-02-11T09:33:11.397Z,6.20
2023-02-11T09:35:44.468Z,6.20
2023-02-11T09:38:17.619Z,6.20
2023-02-11T09:40:51.018Z,6.30
2023-02-11T09:43:28.495Z,6.30
2023-02-11T09:46:02.127Z,6.30
2023-02-11T09:48:42.818Z,6.30
2023-02-11T09:51:20.619Z,6.34
2023-02-11T09:54:00.284Z,6.40
2023-02-11T09:56:34.411Z,6.50
2023-02-11T09:59:11.553Z,6.52
2023-02-11T10:01:49.519Z,6.50
2023-02-11T10:04:45.130Z,6.50
2023-02-11T10:07:28.000Z,6.50
2023-02-11T10:10:19.827Z,6.40
2023-02-11T10:13:14.498Z,6.40
2023-02-11T10:15:57.499Z,6.40
2023-02-11T10:19:05.465Z,6.40
2023-02-11T10:21:51.745Z,6.40
2023-02-11T10:24:25.569Z,6.40
2023-02-11T10:26:59.413Z,6.40
2023-02-11T10:29:42.268Z,6.50
2023-02-11T10:32:29.343Z,6.60
2023-02-11T10:35:11.039Z,6.70
2023-02-11T10:37:44.688Z,6.80
2023-02-11T10:40:21.232Z,6.80
2023-02-11T10:42:57.435Z,6.90
2023-02-11T10:45:37.416Z,6.90
2023-02-11T10:48:45.968Z,6.90
2023-02-11T10:51:23.875Z,6.86
2023-02-11T10:54:21.481Z,6.80
2023-02-11T10:57:02.045Z,6.80
2023-02-11T10:59:34.914Z,6.80
2023-02-11T11:02:24.767Z,6.78
2023-02-11T11:05:00.631Z,6.70
2023-02-11T11:07:35.335Z,6.60
2023-02-11T11:10:30.530Z,6.60
2023-02-11T11:13:03.636Z,6.60
2023-02-11T11:15:37.173Z,6.60
2023-02-11T11:18:23.574Z,6.60
2023-02-11T11:21:04.567Z,6.60
2023-02-11T11:23:40.340Z,6.60
2023-02-11T11:26:16.790Z,6.66
2023-02-11T11:28:59.296Z,6.70
2023-02-11T11:31:47.508Z,6.80
2023-02-11T11:34:29.716Z,7.10
2023-02-11T11:37:12.337Z,7.30
2023-02-11T11:39:50.105Z,7.30
2023-02-11T11:42:33.048Z,7.30
2023-02-11T11:45:26.023Z,7.40
2023-02-11T11:48:04.668Z,7.50
2023-02-11T11:50:43.454Z,7.50
2023-02-11T11:53:22.251Z,7.40
2023-02-11T11:56:01.293Z,7.22
2023-02-11T11:58:35.488Z,7.20
2023-02-11T12:01:24.262Z,7.18
2023-02-11T12:04:37.009Z,7.10
2023-02-11T12:07:26.110Z,7.10
2023-02-11T12:10:20.690Z,7.10
2023-02-11T12:13:03.157Z,7.10
2023-02-11T12:15:46.975Z,7.14
2023-02-11T12:18:45.588Z,7.20
2023-02-11T12:21:36.692Z,7.30
2023-02-11T12:24:29.822Z,7.30
2023-02-11T12:27:09.905Z,7.40
2023-02-11T12:29:56.879Z,7.50
2023-02-11T12:32:38.632Z,7.40
2023-02-11T12:35:48.847Z,7.40
2023-02-11T12:38:50.747Z,7.30
2023-02-11T12:41:59.274Z,7.22
2023-02-11T12:44:46.818Z,7.10
2023-02-11T12:47:30.204Z,7.04
2023-02-11T12:50:14.566Z,7.00
2023-02-11T12:53:19.642Z,7.00
2023-02-11T12:55:59.248Z,6.98
2023-02-11T12:58:44.991Z,6.90
2023-02-11T13:01:25.098Z,6.90
2023-02-11T13:04:08.702Z,6.90
2023-02-11T13:06:47.029Z,6.90
2023-02-11T13:09:25.969Z,6.90
2023-02-11T13:12:21.972Z,6.90
2023-02-11T13:15:02.209Z,6.90
2023-02-11T13:17:40.109Z,6.90
2023-02-11T13:20:27.881Z,6.90
2023-02-11T13:23:05.476Z,6.90
2023-02-11T13:25:50.316Z,6.90
2023-02-11T13:28:40.367Z,6.90
2023-02-11T13:31:16.444Z,6.88
2023-02-11T13:33:50.244Z,6.80
2023-02-11T13:36:28.674Z,6.80
2023-02-11T13:39:08.166Z,6.80
2023-02-11T13:41:45.429Z,6.80
2023-02-11T13:44:31.427Z,6.80
2023-02-11T13:47:09.006Z,6.80
2023-02-11T13:49:52.171Z,6.80
2023-02-11T13:52:31.461Z,6.80
2023-02-11T13:55:16.229Z,6.80
2023-02-11T13:58:25.372Z,6.80
2023-02-11T14:00:58.706Z,6.80
2023-02-11T14:03:55.668Z,6.80
2023-02-11T14:06:50.125Z,6.80
2023-02-11T14:09:45.001Z,6.80
2023-02-11T14:12:37.253Z,6.76
2023-02-11T14:15:39.373Z,6.72
2023-02-11T14:18:39.820Z,6.70
2023-02-11T14:21:22.215Z,6.70
2023-02-11T14:24:16.026Z,6.68
2023-02-11T14:26:53.660Z,6.60
2023-02-11T14:29:36.148Z,6.60
2023-02-11T14:32:21.811Z,6.60
2023-02-11T14:35:04.855Z,6.50
2023-02-11T14:37:50.631Z,6.50
2023-02-11T14:40:33.443Z,6.50
2023-02-11T14:43:17.449Z,6.50
2023-02-11T14:45:55.635Z,6.44
2023-02-11T14:48:36.363Z,6.40
2023-02-11T14:51:14.798Z,6.40
2023-02-11T14:53:51.915Z,6.30
2023-02-11T14:56:28.134Z,6.30
2023-02-11T14:59:02.804Z,6.20
2023-02-11T15:01:42.148Z,6.20
2023-02-11T15:04:29.279Z,6.10
2023-02-11T15:07:07.784Z,6.10
2023-02-11T15:09:45.242Z,6.10
2023-02-11T15:12:27.563Z,6.00
2023-02-11T15:15:03.649Z,6.00
2023-02-11T15:17:37.587Z,5.90
2023-02-11T15:20:28.743Z,5.90
2023-02-11T15:23:05.389Z,5.84
2023-02-11T15:25:46.510Z,5.80
2023-02-11T15:28:25.381Z,5.80
2023-02-11T15:31:15.199Z,5.72
2023-02-11T15:33:48.574Z,5.72
2023-02-11T15:36:24.097Z,5.70
2023-02-11T15:39:32.166Z,5.70
2023-02-11T15:42:24.194Z,5.70
2023-02-11T15:45:26.231Z,5.70
2023-02-11T15:48:06.443Z,5.70
2023-02-11T15:50:42.387Z,5.70
2023-02-11T15:53:27.893Z,5.70
2023-02-11T15:56:09.431Z,5.70
2023-02-11T15:58:45.185Z,5.64
2023-02-11T16:01:18.743Z,5.60
2023-02-11T16:03:54.052Z,5.60
2023-02-11T16:06:36.959Z,5.60
2023-02-11T16:09:27.485Z,5.60
2023-02-11T16:12:03.869Z,5.60
2023-02-11T16:14:39.490Z,5.60
2023-02-11T16:17:23.788Z,5.60
2023-02-11T16:19:57.460Z,5.60
2023-02-11T16:22:38.251Z,5.60
2023-02-11T16:25:22.206Z,5.60
2023-02-11T16:27:56.681Z,5.62
2023-02-11T16:30:37.879Z,5.66
2023-02-11T16:33:12.316Z,5.68
2023-02-11T16:35:47.839Z,5.70
2023-02-11T16:38:21.578Z,5.70
2023-02-11T16:40:54.674Z,5.70
2023-02-11T16:43:27.783Z,5.70
2023-02-11T16:46:01.348Z,5.70
2023-02-11T16:48:35.246Z,5.70
2023-02-11T16:51:11.651Z,5.70
2023-02-11T16:53:44.698Z,5.74
2023-02-11T16:56:20.947Z,5.80
2023-02-11T16:58:54.070Z,5.80
2023-02-11T17:01:27.353Z,5.80
2023-02-11T17:04:00.788Z,5.80
2023-02-11T17:06:34.552Z,5.80
2023-02-11T17:09:08.832Z,5.80
2023-02-11T17:11:41.861Z,5.80
2023-02-11T17:14:15.468Z,5.80
2023-02-11T17:16:49.319Z,5.80
2023-02-11T17:19:23.356Z,5.80
2023-02-11T17:21:57.231Z,5.80
2023-02-11T17:24:30.385Z,5.80
2023-02-11T17:27:03.639Z,5.80
2023-02-11T17:29:36.869Z,5.80
2023-02-11T17:32:10.163Z,5.80
2023-02-11T17:34:43.459Z,5.80
2023-02-11T17:37:16.595Z,5.80
2023-02-11T17:39:50.416Z,5.80
2023-02-11T17:42:23.750Z,5.80
2023-02-11T17:44:56.825Z,5.80
2023-02-11T17:47:30.840Z,5.80
2023-02-11T17:50:04.419Z,5.80
2023-02-11T17:52:38.073Z,5.80
2023-02-11T17:55:12.200Z,5.80
2023-02-11T17:57:45.328Z,5.80
2023-02-11T18:00:21.318Z,5.80
2023-02-11T18:02:57.143Z,5.80
2023-02-11T18:05:34.884Z,5.80
2023-02-11T18:08:10.615Z,5.80
2023-02-11T18:10:46.320Z,5.80
2023-02-11T18:13:19.485Z,5.80
2023-02-11T18:15:53.409Z,5.80
2023-02-11T18:18:26.612Z,5.80
2023-02-11T18:21:04.312Z,5.80
2023-02-11T18:23:37.727Z,5.80
2023-02-11T18:26:14.891Z,5.80
2023-02-11T18:28:48.464Z,5.80
2023-02-11T18:31:23.043Z,5.80
2023-02-11T18:33:56.409Z,5.80
2023-02-11T18:36:29.571Z,5.80
2023-02-11T18:39:02.712Z,5.84
2023-02-11T18:41:35.946Z,5.80
2023-02-11T18:44:09.400Z,5.86
2023-02-11T18:46:42.597Z,5.82
2023-02-11T18:49:15.698Z,5.90
2023-02-11T18:51:49.163Z,5.90
2023-02-11T18:54:22.523Z,5.90
2023-02-11T18:56:55.560Z,5.90
2023-02-11T18:59:28.679Z,5.90
2023-02-11T19:02:01.926Z,5.90
2023-02-11T19:04:37.455Z,5.90
2023-02-11T19:07:10.682Z,5.90
2023-02-11T19:09:43.840Z,5.90
2023-02-11T19:12:16.821Z,5.90
2023-02-11T19:14:50.115Z,5.90
2023-02-11T19:17:23.814Z,5.90
2023-02-11T19:19:57.486Z,5.90
2023-02-11T19:22:30.551Z,5.90
2023-02-11T19:25:03.702Z,5.90
2023-02-11T19:27:36.945Z,5.90
2023-02-11T19:30:12.492Z,5.90
2023-02-11T19:32:45.561Z,5.90
2023-02-11T19:35:18.646Z,5.90
2023-02-11T19:38:04.953Z,5.90
2023-02-11T19:40:38.009Z,5.90
2023-02-11T19:43:11.088Z,5.90
2023-02-11T19:45:44.160Z,5.90
2023-02-11T19:48:17.784Z,5.90
2023-02-11T19:50:50.939Z,5.90
2023-02-11T19:53:24.920Z,5.90
2023-02-11T19:56:01.751Z,5.90
2023-02-11T19:58:34.925Z,5.90
2023-02-11T20:01:14.002Z,5.90
2023-02-11T20:03:49.470Z,5.82
2023-02-11T20:06:25.175Z,5.80
2023-02-11T20:09:01.221Z,5.86
2023-02-11T20:11:36.162Z,5.90
2023-02-11T20:14:10.726Z,5.90
2023-02-11T20:16:49.243Z,5.90
2023-02-11T20:19:24.958Z,5.90
2023-02-11T20:21:59.059Z,5.90
2023-02-11T20:24:32.247Z,5.90
2023-02-11T20:27:08.554Z,5.90
2023-02-11T20:29:42.140Z,5.90
2023-02-11T20:32:15.780Z,5.90
2023-02-11T20:34:49.018Z,5.90
2023-02-11T20:37:22.320Z,5.90
2023-02-11T20:39:55.500Z,5.90
2023-02-11T20:42:28.798Z,5.92
2023-02-11T20:45:02.500Z,6.00
2023-02-11T20:47:35.770Z,6.00
2023-02-11T20:50:10.716Z,6.00
2023-02-11T20:52:43.818Z,6.00
2023-02-11T20:55:17.114Z,6.00
2023-02-11T20:57:50.398Z,5.96
2023-02-11T21:00:24.856Z,6.00
2023-02-11T21:02:58.122Z,6.00
2023-02-11T21:05:32.124Z,6.00
2023-02-11T21:08:05.703Z,6.00
2023-02-11T21:10:38.765Z,6.00
2023-02-11T21:13:11.837Z,6.00
2023-02-11T21:15:45.103Z,6.00
2023-02-11T21:18:18.276Z,6.00
2023-02-11T21:20:51.421Z,6.08
2023-02-11T21:23:25.232Z,6.10
2023-02-11T21:25:59.753Z,6.10
2023-02-11T21:28:33.282Z,6.10
2023-02-11T21:31:07.272Z,6.10
2023-02-11T21:33:40.384Z,6.10
2023-02-11T21:36:15.275Z,6.10
2023-02-11T21:38:48.901Z,6.10
2023-02-11T21:41:23.360Z,6.10
2023-02-11T21:43:59.517Z,6.10
2023-02-11T21:46:33.727Z,6.10
2023-02-11T21:49:06.913Z,6.10
2023-02-11T21:51:40.676Z,6.10
2023-02-11T21:54:15.288Z,6.10
2023-02-11T21:56:51.798Z,6.10
2023-02-11T21:59:25.060Z,6.10
2023-02-11T22:01:58.963Z,6.10
2023-02-11T22:04:33.496Z,6.10
2023-02-11T22:07:06.666Z,6.10
2023-02-11T22:09:41.297Z,6.10
2023-02-11T22:12:14.602Z,6.10
2023-02-11T22:14:48.042Z,6.10
2023-02-11T22:17:21.286Z,6.10
2023-02-11T22:19:55.650Z,6.10
2023-02-11T22:22:29.620Z,6.10
2023-02-11T22:25:03.486Z,6.10
2023-02-11T22:27:36.828Z,6.10
2023-02-11T22:30:12.772Z,6.10
2023-02-11T22:32:46.846Z,6.10
2023-02-11T22:35:20.261Z,6.10
2023-02-11T22:37:53.659Z,6.12
2023-02-11T22:40:26.852Z,6.10
2023-02-11T22:43:00.014Z,6.20
2023-02-11T22:45:34.621Z,6.20
2023-02-11T22:48:08.382Z,6.20
2023-02-11T22:50:41.500Z,6.20
2023-02-11T22:53:14.714Z,6.20
2023-02-11T22:55:47.952Z,6.20
2023-02-11T22:58:21.130Z,6.20
2023-02-11T23:00:54.290Z,6.20
2023-02-11T23:03:28.374Z,6.20
2023-02-11T23:06:03.021Z,6.20
2023-02-11T23:08:36.809Z,6.20
2023-02-11T23:11:12.886Z,6.20
2023-02-11T23:13:47.970Z,6.20
2023-02-11T23:16:24.443Z,6.20
2023-02-11T23:18:59.925Z,6.24
2023-02-11T23:21:36.591Z,6.20
2023-02-11T23:24:14.530Z,6.20
2023-02-11T23:26:48.016Z,6.20
2023-02-11T23:29:21.146Z,6.20
2023-02-11T23:31:56.973Z,6.20
2023-02-11T23:34:31.852Z,6.20
2023-02-11T23:37:05.551Z,6.20
2023-02-11T23:39:39.124Z,6.20
2023-02-11T23:42:12.278Z,6.20
2023-02-11T23:44:45.354Z,6.20
2023-02-11T23:47:18.469Z,6.20
2023-02-11T23:49:51.579Z,6.20
2023-02-11T23:52:24.801Z,6.20
2023-02-11T23:54:57.860Z,6.20
2023-02-11T23:57:32.800Z,6.20
